createdAt,value
2023-01-29T00:00:28.438Z,42
2023-01-29T00:01:29.055Z,32
2023-01-29T00:02:28.515Z,37
2023-01-29T00:03:28.531Z,36
2023-01-29T00:04:29.297Z,34
2023-01-29T00:05:28.918Z,33
2023-01-29T00:06:27.259Z,37
2023-01-29T00:07:28.484Z,36
2023-01-29T00:08:28.452Z,32
2023-01-29T00:09:28.423Z,32
2023-01-29T00:10:29.244Z,36
2023-01-29T00:11:29.137Z,32
2023-01-29T00:12:29.248Z,37
2023-01-29T00:13:28.450Z,32
2023-01-29T00:14:28.443Z,30
2023-01-29T00:15:28.511Z,29
2023-01-29T00:16:28.789Z,33
2023-01-29T00:17:28.424Z,33
2023-01-29T00:18:28.495Z,33
2023-01-29T00:19:28.827Z,34
2023-01-29T00:20:28.608Z,30
2023-01-29T00:21:28.985Z,32
2023-01-29T00:22:28.572Z,31
2023-01-29T00:23:28.504Z,31
2023-01-29T00:24:29.114Z,35
2023-01-29T00:25:28.452Z,29
2023-01-29T00:26:28.455Z,27
2023-01-29T00:27:28.593Z,28
2023-01-29T00:28:28.552Z,31
2023-01-29T00:29:28.995Z,29
2023-01-29T00:30:28.482Z,31
2023-01-29T00:31:29.294Z,31
2023-01-29T00:32:28.849Z,31
2023-01-29T00:33:28.490Z,31
2023-01-29T00:34:28.455Z,31
2023-01-29T00:35:28.442Z,29
2023-01-29T00:36:29.172Z,28
2023-01-29T00:37:28.468Z,30
2023-01-29T00:38:28.997Z,30
2023-01-29T00:39:42.506Z,29
2023-01-29T00:40:28.476Z,28
2023-01-29T00:41:28.689Z,27
2023-01-29T00:42:28.920Z,27
2023-01-29T00:43:28.450Z,28
2023-01-29T00:44:28.815Z,30
2023-01-29T00:45:28.978Z,32
2023-01-29T00:46:28.475Z,29
2023-01-29T00:47:28.745Z,29
2023-01-29T00:48:28.542Z,30
2023-01-29T00:49:28.469Z,30
2023-01-29T00:50:28.543Z,30
2023-01-29T00:51:28.513Z,27
2023-01-29T00:52:28.995Z,28
2023-01-29T00:53:29.190Z,28
2023-01-29T00:54:28.432Z,31
2023-01-29T00:55:28.460Z,30
2023-01-29T00:56:28.502Z,30
2023-01-29T00:57:28.491Z,29
2023-01-29T00:58:29.017Z,29
2023-01-29T00:59:28.536Z,30
2023-01-29T01:00:28.932Z,28
2023-01-29T01:01:28.520Z,28
2023-01-29T01:02:28.939Z,29
2023-01-29T01:03:28.553Z,31
2023-01-29T01:04:29.279Z,30
2023-01-29T01:05:29.133Z,30
2023-01-29T01:06:28.900Z,34
2023-01-29T01:07:28.978Z,29
2023-01-29T01:08:29.250Z,28
2023-01-29T01:09:29.123Z,33
2023-01-29T01:10:28.482Z,32
2023-01-29T01:11:28.597Z,29
2023-01-29T01:12:28.735Z,29
2023-01-29T01:13:28.506Z,30
2023-01-29T01:14:28.935Z,29
2023-01-29T01:15:28.443Z,32
2023-01-29T01:16:28.570Z,30
2023-01-29T01:17:29.235Z,29
2023-01-29T01:18:28.419Z,30
2023-01-29T01:19:28.975Z,27
2023-01-29T01:20:28.414Z,31
2023-01-29T01:21:28.458Z,31
2023-01-29T01:22:28.744Z,28
2023-01-29T01:23:28.911Z,28
2023-01-29T01:24:28.637Z,29
2023-01-29T01:25:28.521Z,28
2023-01-29T01:26:28.436Z,29
2023-01-29T01:27:28.415Z,34
2023-01-29T01:28:28.430Z,30
2023-01-29T01:29:28.715Z,30
2023-01-29T01:30:29.005Z,29
2023-01-29T01:31:29.479Z,29
2023-01-29T01:32:28.832Z,30
2023-01-29T01:33:28.530Z,31
2023-01-29T01:34:28.947Z,27
2023-01-29T01:35:29.307Z,27
2023-01-29T01:36:27.324Z,30
2023-01-29T01:37:28.567Z,30
2023-01-29T01:38:28.700Z,30
2023-01-29T01:39:28.887Z,29
2023-01-29T01:40:28.481Z,31
2023-01-29T01:41:28.982Z,32
2023-01-29T01:42:28.423Z,34
2023-01-29T01:43:28.462Z,34
2023-01-29T01:44:28.805Z,33
2023-01-29T01:45:28.562Z,33
2023-01-29T01:46:29.219Z,32
2023-01-29T01:47:28.517Z,33
2023-01-29T01:48:28.446Z,33
2023-01-29T01:49:28.952Z,32
2023-01-29T01:50:28.978Z,31
2023-01-29T01:51:28.449Z,31
2023-01-29T01:52:28.959Z,32
2023-01-29T01:53:28.976Z,28
2023-01-29T01:54:28.977Z,33
2023-01-29T01:55:28.702Z,31
2023-01-29T01:56:28.650Z,34
2023-01-29T01:57:28.454Z,33
2023-01-29T01:58:28.623Z,31
2023-01-29T01:59:28.421Z,34
2023-01-29T02:00:29.206Z,36
2023-01-29T02:01:28.468Z,32
2023-01-29T02:02:29.406Z,30
2023-01-29T02:03:28.515Z,36
2023-01-29T02:04:28.526Z,33
2023-01-29T02:05:28.402Z,35
2023-01-29T02:06:29.005Z,36
2023-01-29T02:07:28.441Z,36
2023-01-29T02:08:29.367Z,36
2023-01-29T02:09:28.468Z,35
2023-01-29T02:10:28.698Z,33
2023-01-29T02:11:28.992Z,32
2023-01-29T02:12:29.085Z,36
2023-01-29T02:13:28.415Z,33
2023-01-29T02:14:28.438Z,37
2023-01-29T02:15:28.482Z,35
2023-01-29T02:16:29.114Z,34
2023-01-29T02:17:29.161Z,34
2023-01-29T02:18:29.038Z,35
2023-01-29T02:19:28.621Z,38
2023-01-29T02:20:28.402Z,35
2023-01-29T02:21:28.422Z,37
2023-01-29T02:22:28.433Z,33
2023-01-29T02:23:29.395Z,35
2023-01-29T02:24:28.499Z,38
2023-01-29T02:25:28.847Z,39
2023-01-29T02:26:29.068Z,36
2023-01-29T02:27:28.413Z,40
2023-01-29T02:28:29.208Z,35
2023-01-29T02:29:29.109Z,39
2023-01-29T02:30:29.095Z,39
2023-01-29T02:31:28.455Z,36
2023-01-29T02:32:29.045Z,38
2023-01-29T02:33:28.631Z,35
2023-01-29T02:34:28.479Z,37
2023-01-29T02:35:28.402Z,37
2023-01-29T02:36:28.522Z,38
2023-01-29T02:37:28.444Z,36
2023-01-29T02:38:29.044Z,32
2023-01-29T02:39:29.484Z,38
2023-01-29T02:40:28.404Z,35
2023-01-29T02:41:28.595Z,41
2023-01-29T02:42:28.459Z,38
2023-01-29T02:43:27.479Z,39
2023-01-29T02:44:28.446Z,40
2023-01-29T02:45:29.121Z,36
2023-01-29T02:46:28.413Z,37
2023-01-29T02:47:28.398Z,38
2023-01-29T02:48:28.522Z,39
2023-01-29T02:49:28.550Z,40
2023-01-29T02:50:28.743Z,38
2023-01-29T02:51:28.894Z,39
2023-01-29T02:52:29.138Z,36
2023-01-29T02:53:28.534Z,40
2023-01-29T02:54:28.612Z,37
2023-01-29T02:55:28.442Z,41
2023-01-29T02:56:28.476Z,35
2023-01-29T02:57:29.192Z,41
2023-01-29T02:58:28.726Z,36
2023-01-29T02:59:28.468Z,38
2023-01-29T03:00:29.106Z,37
2023-01-29T03:01:29.289Z,36
2023-01-29T03:02:28.628Z,38
2023-01-29T03:03:28.806Z,39
2023-01-29T03:04:29.029Z,38
2023-01-29T03:05:27.228Z,35
2023-01-29T03:06:29.160Z,39
2023-01-29T03:07:28.930Z,40
2023-01-29T03:08:28.949Z,38
2023-01-29T03:09:29.167Z,37
2023-01-29T03:10:29.258Z,32
2023-01-29T03:11:28.964Z,36
2023-01-29T03:12:29.164Z,39
2023-01-29T03:13:28.402Z,38
2023-01-29T03:14:28.439Z,40
2023-01-29T03:15:28.575Z,37
2023-01-29T03:16:28.561Z,41
2023-01-29T03:17:28.418Z,40
2023-01-29T03:18:29.016Z,36
2023-01-29T03:19:28.425Z,37
2023-01-29T03:20:28.780Z,35
2023-01-29T03:21:28.736Z,35
2023-01-29T03:22:29.020Z,32
2023-01-29T03:23:28.382Z,34
2023-01-29T03:24:28.862Z,38
2023-01-29T03:25:28.942Z,35
2023-01-29T03:26:28.443Z,35
2023-01-29T03:27:28.400Z,35
2023-01-29T03:28:29.156Z,33
2023-01-29T03:29:29.400Z,31
2023-01-29T03:30:28.405Z,32
2023-01-29T03:31:28.545Z,36
2023-01-29T03:32:28.475Z,36
2023-01-29T03:33:28.631Z,34
2023-01-29T03:34:29.172Z,30
2023-01-29T03:35:28.450Z,29
2023-01-29T03:36:28.745Z,34
2023-01-29T03:37:29.113Z,32
2023-01-29T03:38:29.229Z,33
2023-01-29T03:39:28.444Z,32
2023-01-29T03:40:28.516Z,35
2023-01-29T03:41:28.753Z,34
2023-01-29T03:42:28.541Z,33
2023-01-29T03:43:29.361Z,38
2023-01-29T03:44:28.451Z,33
2023-01-29T03:45:28.469Z,31
2023-01-29T03:46:28.462Z,37
2023-01-29T03:47:28.385Z,34
2023-01-29T03:48:29.071Z,39
2023-01-29T03:49:28.420Z,39
2023-01-29T03:50:28.995Z,41
2023-01-29T03:51:28.583Z,42
2023-01-29T03:52:29.435Z,44
2023-01-29T03:53:28.507Z,41
2023-01-29T03:54:28.716Z,44
2023-01-29T03:55:29.269Z,44
2023-01-29T03:56:28.416Z,43
2023-01-29T03:57:28.517Z,40
2023-01-29T03:58:28.733Z,40
2023-01-29T03:59:29.054Z,43
2023-01-29T04:00:28.412Z,44
2023-01-29T04:01:28.408Z,44
2023-01-29T04:02:29.117Z,43
2023-01-29T04:03:28.406Z,38
2023-01-29T04:04:28.561Z,36
2023-01-29T04:05:28.639Z,37
2023-01-29T04:06:29.364Z,37
2023-01-29T04:07:28.384Z,37
2023-01-29T04:08:28.513Z,36
2023-01-29T04:09:29.027Z,37
2023-01-29T04:10:29.137Z,37
2023-01-29T04:11:28.396Z,36
2023-01-29T04:12:27.262Z,35
2023-01-29T04:13:28.853Z,39
2023-01-29T04:14:28.428Z,35
2023-01-29T04:15:28.466Z,34
2023-01-29T04:16:28.522Z,38
2023-01-29T04:17:28.464Z,36
2023-01-29T04:18:28.856Z,36
2023-01-29T04:19:28.897Z,38
2023-01-29T04:20:28.384Z,33
2023-01-29T04:21:28.910Z,35
2023-01-29T04:22:28.486Z,38
2023-01-29T04:23:28.897Z,36
2023-01-29T04:24:29.286Z,35
2023-01-29T04:25:28.425Z,36
2023-01-29T04:26:29.048Z,34
2023-01-29T04:27:29.146Z,34
2023-01-29T04:28:29.061Z,32
2023-01-29T04:29:30.166Z,39
2023-01-29T04:30:29.163Z,35
2023-01-29T04:31:28.555Z,31
2023-01-29T04:32:28.952Z,36
2023-01-29T04:33:29.095Z,33
2023-01-29T04:34:28.383Z,36
2023-01-29T04:35:28.892Z,37
2023-01-29T04:36:28.881Z,34
2023-01-29T04:37:29.100Z,34
2023-01-29T04:38:28.998Z,35
2023-01-29T04:39:28.916Z,35
2023-01-29T04:40:28.507Z,33
2023-01-29T04:41:28.594Z,38
2023-01-29T04:42:29.027Z,35
2023-01-29T04:43:28.728Z,35
2023-01-29T04:44:28.825Z,37
2023-01-29T04:45:28.950Z,36
2023-01-29T04:46:29.350Z,33
2023-01-29T04:47:28.448Z,36
2023-01-29T04:48:28.451Z,35
2023-01-29T04:49:29.186Z,37
2023-01-29T04:50:29.059Z,49
2023-01-29T04:51:28.529Z,43
2023-01-29T04:52:28.380Z,46
2023-01-29T04:53:29.176Z,42
2023-01-29T04:54:29.271Z,44
2023-01-29T04:55:29.332Z,40
2023-01-29T04:56:29.267Z,43
2023-01-29T04:57:27.362Z,44
2023-01-29T04:58:28.609Z,43
2023-01-29T04:59:29.136Z,42
2023-01-29T05:00:29.150Z,42
2023-01-29T05:01:28.453Z,39
2023-01-29T05:02:29.228Z,42
2023-01-29T05:03:28.835Z,37
2023-01-29T05:04:29.093Z,35
2023-01-29T05:05:28.417Z,40
2023-01-29T05:06:28.391Z,37
2023-01-29T05:07:28.770Z,36
2023-01-29T05:08:28.388Z,37
2023-01-29T05:09:28.425Z,35
2023-01-29T05:10:28.587Z,32
2023-01-29T05:11:29.001Z,37
2023-01-29T05:12:28.393Z,31
2023-01-29T05:13:29.425Z,32
2023-01-29T05:14:29.332Z,32
2023-01-29T05:15:28.394Z,35
2023-01-29T05:16:28.395Z,33
2023-01-29T05:17:29.049Z,34
2023-01-29T05:18:28.907Z,32
2023-01-29T05:19:28.392Z,31
2023-01-29T05:20:29.167Z,31
2023-01-29T05:21:28.459Z,34
2023-01-29T05:22:28.457Z,30
2023-01-29T05:23:30.955Z,31
2023-01-29T05:24:28.551Z,33
2023-01-29T05:25:28.606Z,33
2023-01-29T05:26:28.668Z,32
2023-01-29T05:27:28.833Z,34
2023-01-29T05:28:28.809Z,33
2023-01-29T05:29:28.377Z,34
2023-01-29T05:30:28.637Z,33
2023-01-29T05:31:28.509Z,30
2023-01-29T05:32:28.796Z,36
2023-01-29T05:33:28.390Z,36
2023-01-29T05:34:28.410Z,35
2023-01-29T05:35:28.839Z,35
2023-01-29T05:36:28.756Z,37
2023-01-29T05:37:29.089Z,33
2023-01-29T05:38:28.887Z,32
2023-01-29T05:39:28.464Z,34
2023-01-29T05:40:28.506Z,37
2023-01-29T05:41:29.090Z,36
2023-01-29T05:42:28.571Z,35
2023-01-29T05:43:28.401Z,35
2023-01-29T05:44:29.116Z,35
2023-01-29T05:45:28.842Z,35
2023-01-29T05:46:29.327Z,35
2023-01-29T05:47:28.376Z,31
2023-01-29T05:48:28.871Z,34
2023-01-29T05:49:29.265Z,36
2023-01-29T05:50:28.413Z,35
2023-01-29T05:51:28.383Z,32
2023-01-29T05:52:29.171Z,33
2023-01-29T05:53:28.558Z,37
2023-01-29T05:54:28.379Z,34
2023-01-29T05:55:28.705Z,32
2023-01-29T05:56:28.488Z,37
2023-01-29T05:57:28.581Z,35
2023-01-29T05:58:28.645Z,37
2023-01-29T05:59:28.496Z,36
2023-01-29T06:00:28.732Z,32
2023-01-29T06:01:29.289Z,34
2023-01-29T06:02:28.411Z,33
2023-01-29T06:03:28.938Z,34
2023-01-29T06:04:27.248Z,35
2023-01-29T06:05:28.726Z,37
2023-01-29T06:06:28.796Z,37
2023-01-29T06:07:28.630Z,33
2023-01-29T06:08:28.987Z,36
2023-01-29T06:09:28.457Z,33
2023-01-29T06:10:29.194Z,33
2023-01-29T06:11:28.385Z,33
2023-01-29T06:12:28.487Z,33
2023-01-29T06:13:29.099Z,35
2023-01-29T06:14:28.508Z,32
2023-01-29T06:15:28.532Z,33
2023-01-29T06:16:28.427Z,35
2023-01-29T06:17:29.027Z,34
2023-01-29T06:18:28.745Z,34
2023-01-29T06:19:28.989Z,32
2023-01-29T06:20:28.398Z,34
2023-01-29T06:21:28.772Z,36
2023-01-29T06:22:28.488Z,34
2023-01-29T06:23:28.970Z,36
2023-01-29T06:24:28.942Z,33
2023-01-29T06:25:29.966Z,35
2023-01-29T06:26:27.788Z,31
2023-01-29T06:27:28.473Z,35
2023-01-29T06:28:28.375Z,35
2023-01-29T06:29:28.437Z,36
2023-01-29T06:30:28.997Z,35
2023-01-29T06:31:38.256Z,32
2023-01-29T06:32:28.446Z,36
2023-01-29T06:33:28.804Z,32
2023-01-29T06:34:28.450Z,32
2023-01-29T06:35:28.778Z,32
2023-01-29T06:36:28.613Z,33
2023-01-29T06:37:28.391Z,35
2023-01-29T06:38:28.952Z,34
2023-01-29T06:39:28.445Z,31
2023-01-29T06:40:28.467Z,36
2023-01-29T06:41:28.869Z,34
2023-01-29T06:42:28.892Z,37
2023-01-29T06:43:28.985Z,38
2023-01-29T06:44:28.898Z,33
2023-01-29T06:45:28.534Z,30
2023-01-29T06:46:28.494Z,33
2023-01-29T06:47:29.108Z,31
2023-01-29T06:48:27.275Z,36
2023-01-29T06:49:29.364Z,34
2023-01-29T06:50:29.102Z,31
2023-01-29T06:51:29.298Z,34
2023-01-29T06:52:28.428Z,37
2023-01-29T06:53:28.949Z,35
2023-01-29T06:54:28.446Z,31
2023-01-29T06:55:28.631Z,35
2023-01-29T06:56:28.447Z,39
2023-01-29T06:57:28.480Z,37
2023-01-29T06:58:28.988Z,38
2023-01-29T06:59:28.602Z,38
2023-01-29T07:00:30.625Z,40
2023-01-29T07:01:35.995Z,44
2023-01-29T07:02:28.431Z,40
2023-01-29T07:03:28.694Z,40
2023-01-29T07:04:28.633Z,37
2023-01-29T07:05:28.369Z,37
2023-01-29T07:06:28.396Z,33
2023-01-29T07:07:28.412Z,36
2023-01-29T07:08:29.245Z,39
2023-01-29T07:09:29.143Z,39
2023-01-29T07:10:28.363Z,32
2023-01-29T07:11:29.021Z,33
2023-01-29T07:12:28.915Z,38
2023-01-29T07:13:28.412Z,40
2023-01-29T07:14:28.976Z,36
2023-01-29T07:15:28.799Z,38
2023-01-29T07:16:28.471Z,41
2023-01-29T07:17:28.629Z,40
2023-01-29T07:18:28.427Z,41
2023-01-29T07:19:28.381Z,43
2023-01-29T07:20:28.413Z,41
2023-01-29T07:21:29.342Z,41
2023-01-29T07:22:28.682Z,46
2023-01-29T07:23:28.830Z,39
2023-01-29T07:24:29.288Z,41
2023-01-29T07:25:28.426Z,48
2023-01-29T07:26:28.880Z,45
2023-01-29T07:27:28.443Z,49
2023-01-29T07:28:28.449Z,42
2023-01-29T07:29:28.705Z,47
2023-01-29T07:30:28.381Z,45
2023-01-29T07:31:28.973Z,46
2023-01-29T07:32:28.455Z,47
2023-01-29T07:33:28.778Z,48
2023-01-29T07:34:28.653Z,47
2023-01-29T07:35:28.421Z,43
2023-01-29T07:36:28.723Z,46
2023-01-29T07:37:28.717Z,46
2023-01-29T07:38:28.754Z,45
2023-01-29T07:39:29.252Z,44
2023-01-29T07:40:28.529Z,47
2023-01-29T07:41:28.949Z,45
2023-01-29T07:42:29.041Z,45
2023-01-29T07:43:29.113Z,48
2023-01-29T07:44:28.960Z,47
2023-01-29T07:45:28.532Z,44
2023-01-29T07:46:28.483Z,48
2023-01-29T07:47:28.472Z,49
2023-01-29T07:48:28.484Z,46
2023-01-29T07:49:28.414Z,47
2023-01-29T07:50:28.654Z,47
2023-01-29T07:51:30.736Z,50
2023-01-29T07:52:28.366Z,53
2023-01-29T07:53:28.808Z,50
2023-01-29T07:54:29.226Z,47
2023-01-29T07:55:28.903Z,48
2023-01-29T07:56:28.695Z,49
2023-01-29T07:57:28.825Z,48
2023-01-29T07:58:28.480Z,49
2023-01-29T07:59:29.059Z,46
2023-01-29T08:00:29.065Z,47
2023-01-29T08:01:29.255Z,47
2023-01-29T08:02:28.794Z,46
2023-01-29T08:03:28.474Z,43
2023-01-29T08:04:28.477Z,47
2023-01-29T08:05:29.028Z,45
2023-01-29T08:06:28.505Z,45
2023-01-29T08:07:28.908Z,47
2023-01-29T08:08:28.925Z,45
2023-01-29T08:09:28.351Z,42
2023-01-29T08:10:28.529Z,43
2023-01-29T08:11:28.445Z,41
2023-01-29T08:12:28.525Z,44
2023-01-29T08:13:28.364Z,41
2023-01-29T08:14:29.017Z,47
2023-01-29T08:15:28.763Z,44
2023-01-29T08:16:28.557Z,43
2023-01-29T08:17:28.764Z,44
2023-01-29T08:18:28.070Z,43
2023-01-29T08:19:29.082Z,46
2023-01-29T08:20:28.701Z,45
2023-01-29T08:21:28.704Z,45
2023-01-29T08:22:28.358Z,47
2023-01-29T08:23:28.370Z,45
2023-01-29T08:24:41.483Z,45
2023-01-29T08:25:29.271Z,44
2023-01-29T08:26:28.856Z,42
2023-01-29T08:27:28.673Z,44
2023-01-29T08:28:28.498Z,47
2023-01-29T08:29:28.846Z,44
2023-01-29T08:30:29.054Z,49
2023-01-29T08:31:28.496Z,46
2023-01-29T08:32:28.863Z,47
2023-01-29T08:33:38.357Z,46
2023-01-29T08:34:29.190Z,46
2023-01-29T08:35:28.384Z,40
2023-01-29T08:36:28.363Z,49
2023-01-29T08:37:29.102Z,49
2023-01-29T08:38:28.834Z,51
2023-01-29T08:39:28.906Z,49
2023-01-29T08:40:29.033Z,42
2023-01-29T08:41:28.926Z,46
2023-01-29T08:42:28.519Z,48
2023-01-29T08:43:28.423Z,46
2023-01-29T08:44:29.048Z,49
2023-01-29T08:45:28.431Z,45
2023-01-29T08:46:28.457Z,47
2023-01-29T08:47:29.568Z,48
2023-01-29T08:48:28.453Z,42
2023-01-29T08:49:28.998Z,44
2023-01-29T08:50:28.372Z,43
2023-01-29T08:51:29.313Z,39
2023-01-29T08:52:29.091Z,43
2023-01-29T08:53:29.011Z,40
2023-01-29T08:54:28.999Z,45
2023-01-29T08:55:28.496Z,44
2023-01-29T08:56:28.710Z,42
2023-01-29T08:57:28.815Z,45
2023-01-29T08:58:28.819Z,42
2023-01-29T08:59:28.838Z,46
2023-01-29T09:00:28.432Z,41
2023-01-29T09:01:28.408Z,44
2023-01-29T09:02:29.111Z,44
2023-01-29T09:03:28.968Z,39
2023-01-29T09:04:28.382Z,44
2023-01-29T09:05:28.376Z,39
2023-01-29T09:06:28.422Z,42
2023-01-29T09:07:28.382Z,41
2023-01-29T09:08:28.513Z,43
2023-01-29T09:09:29.219Z,43
2023-01-29T09:10:30.137Z,42
2023-01-29T09:11:28.411Z,41
2023-01-29T09:12:28.817Z,37
2023-01-29T09:13:28.343Z,39
2023-01-29T09:14:28.832Z,39
2023-01-29T09:15:28.668Z,45
2023-01-29T09:16:29.038Z,47
2023-01-29T09:17:28.428Z,46
2023-01-29T09:18:28.347Z,43
2023-01-29T09:19:28.969Z,41
2023-01-29T09:20:28.354Z,41
2023-01-29T09:21:28.379Z,45
2023-01-29T09:22:28.363Z,48
2023-01-29T09:23:29.077Z,51
2023-01-29T09:24:29.004Z,45
2023-01-29T09:25:28.781Z,43
2023-01-29T09:26:27.438Z,46
2023-01-29T09:27:28.372Z,46
2023-01-29T09:28:28.378Z,46
2023-01-29T09:29:28.720Z,46
2023-01-29T09:30:29.007Z,42
2023-01-29T09:31:30.204Z,45
2023-01-29T09:33:28.902Z,47
2023-01-29T09:34:28.346Z,44
2023-01-29T09:35:28.369Z,48
2023-01-29T09:36:28.383Z,47
2023-01-29T09:37:28.348Z,51
2023-01-29T09:38:28.413Z,44
2023-01-29T09:39:29.218Z,47
2023-01-29T09:40:28.745Z,46
2023-01-29T09:41:30.520Z,48
2023-01-29T09:42:28.694Z,50
2023-01-29T09:43:28.347Z,47
2023-01-29T09:44:28.567Z,49
2023-01-29T09:45:28.804Z,46
2023-01-29T09:46:28.764Z,49
2023-01-29T09:47:28.744Z,52
2023-01-29T09:48:28.670Z,47
2023-01-29T09:49:28.443Z,52
2023-01-29T09:50:29.175Z,52
2023-01-29T09:51:28.457Z,49
2023-01-29T09:52:28.361Z,53
2023-01-29T09:53:29.185Z,54
2023-01-29T09:54:28.905Z,46
2023-01-29T09:55:28.889Z,55
2023-01-29T09:56:28.393Z,52
2023-01-29T09:57:28.338Z,46
2023-01-29T09:58:28.840Z,45
2023-01-29T09:59:28.454Z,46
2023-01-29T10:00:28.930Z,46
2023-01-29T10:01:28.535Z,46
2023-01-29T10:02:29.177Z,49
2023-01-29T10:03:28.846Z,51
2023-01-29T10:04:28.820Z,48
2023-01-29T10:05:29.186Z,42
2023-01-29T10:06:28.868Z,47
2023-01-29T10:07:28.780Z,48
2023-01-29T10:08:28.558Z,46
2023-01-29T10:09:28.562Z,50
2023-01-29T10:10:29.301Z,50
2023-01-29T10:11:28.353Z,43
2023-01-29T10:12:28.383Z,44
2023-01-29T10:13:28.396Z,43
2023-01-29T10:14:28.904Z,45
2023-01-29T10:15:28.373Z,51
2023-01-29T10:16:28.425Z,46
2023-01-29T10:17:28.412Z,46
2023-01-29T10:18:28.424Z,45
2023-01-29T10:19:28.421Z,41
2023-01-29T10:20:28.345Z,44
2023-01-29T10:21:28.458Z,45
2023-01-29T10:22:28.967Z,43
2023-01-29T10:23:28.427Z,42
2023-01-29T10:24:28.900Z,43
2023-01-29T10:25:28.702Z,46
2023-01-29T10:26:28.646Z,46
2023-01-29T10:27:28.351Z,43
2023-01-29T10:28:28.585Z,44
2023-01-29T10:29:29.142Z,44
2023-01-29T10:30:28.488Z,45
2023-01-29T10:31:28.573Z,44
2023-01-29T10:32:28.909Z,44
2023-01-29T10:33:29.586Z,45
2023-01-29T10:34:28.349Z,43
2023-01-29T10:35:28.348Z,43
2023-01-29T10:36:28.413Z,41
2023-01-29T10:37:28.944Z,39
2023-01-29T10:38:28.350Z,40
2023-01-29T10:39:28.369Z,40
2023-01-29T10:40:28.471Z,37
2023-01-29T10:41:28.881Z,36
2023-01-29T10:42:28.377Z,41
2023-01-29T10:43:28.400Z,39
2023-01-29T10:44:29.292Z,41
2023-01-29T10:45:28.591Z,37
2023-01-29T10:46:28.414Z,37
2023-01-29T10:47:30.246Z,38
2023-01-29T10:48:28.334Z,39
2023-01-29T10:49:29.206Z,37
2023-01-29T10:50:28.970Z,35
2023-01-29T10:51:28.717Z,39
2023-01-29T10:52:28.450Z,34
2023-01-29T10:53:28.437Z,34
2023-01-29T10:54:28.328Z,38
2023-01-29T10:55:28.430Z,36
2023-01-29T10:56:28.929Z,36
2023-01-29T10:57:28.337Z,35
2023-01-29T10:58:28.388Z,36
2023-01-29T10:59:28.334Z,36
2023-01-29T11:00:28.939Z,36
2023-01-29T11:01:28.388Z,33
2023-01-29T11:02:28.420Z,34
2023-01-29T11:03:29.162Z,35
2023-01-29T11:04:28.377Z,37
2023-01-29T11:05:28.773Z,35
2023-01-29T11:06:28.515Z,34
2023-01-29T11:07:28.872Z,33
2023-01-29T11:08:28.333Z,34
2023-01-29T11:09:29.016Z,34
2023-01-29T11:10:28.333Z,38
2023-01-29T11:11:28.355Z,35
2023-01-29T11:12:28.445Z,38
2023-01-29T11:13:28.872Z,34
2023-01-29T11:14:29.104Z,33
2023-01-29T11:15:29.200Z,34
2023-01-29T11:16:28.353Z,33
2023-01-29T11:17:28.364Z,32
2023-01-29T11:18:28.393Z,33
2023-01-29T11:19:28.613Z,31
2023-01-29T11:20:28.876Z,33
2023-01-29T11:21:28.652Z,30
2023-01-29T11:22:28.715Z,30
2023-01-29T11:23:29.411Z,33
2023-01-29T11:24:28.488Z,32
2023-01-29T11:25:28.586Z,33
2023-01-29T11:26:28.396Z,30
2023-01-29T11:27:28.881Z,30
2023-01-29T11:28:28.979Z,27
2023-01-29T11:29:28.779Z,31
2023-01-29T11:30:28.717Z,31
2023-01-29T11:31:28.484Z,32
2023-01-29T11:32:28.380Z,29
2023-01-29T11:33:28.603Z,29
2023-01-29T11:34:29.075Z,29
2023-01-29T11:35:28.367Z,29
2023-01-29T11:36:28.578Z,31
2023-01-29T11:37:29.074Z,36
2023-01-29T11:38:28.889Z,30
2023-01-29T11:39:28.439Z,29
2023-01-29T11:40:28.357Z,30
2023-01-29T11:41:29.129Z,26
2023-01-29T11:42:28.463Z,27
2023-01-29T11:43:28.326Z,27
2023-01-29T11:44:29.344Z,28
2023-01-29T11:45:28.363Z,27
2023-01-29T11:46:28.553Z,28
2023-01-29T11:47:28.898Z,26
2023-01-29T11:48:28.545Z,26
2023-01-29T11:49:28.998Z,24
2023-01-29T11:50:28.766Z,25
2023-01-29T11:51:28.416Z,30
2023-01-29T11:52:28.619Z,27
2023-01-29T11:53:28.414Z,27
2023-01-29T11:54:28.949Z,25
2023-01-29T11:55:33.104Z,26
2023-01-29T11:56:28.445Z,27
2023-01-29T11:57:29.118Z,26
2023-01-29T11:58:29.053Z,26
2023-01-29T11:59:28.971Z,27
2023-01-29T12:00:29.007Z,25
2023-01-29T12:01:29.311Z,24
2023-01-29T12:02:28.479Z,24
2023-01-29T12:03:28.382Z,28
2023-01-29T12:04:28.385Z,24
2023-01-29T12:05:28.399Z,27
2023-01-29T12:06:28.852Z,25
2023-01-29T12:07:28.409Z,27
2023-01-29T12:08:28.923Z,26
2023-01-29T12:09:28.697Z,25
2023-01-29T12:10:28.957Z,24
2023-01-29T12:11:28.390Z,26
2023-01-29T12:12:28.373Z,26
2023-01-29T12:13:28.621Z,30
2023-01-29T12:14:28.987Z,28
2023-01-29T12:15:29.163Z,28
2023-01-29T12:16:29.014Z,27
2023-01-29T12:17:29.287Z,27
2023-01-29T12:18:28.433Z,28
2023-01-29T12:19:28.400Z,28
2023-01-29T12:20:28.352Z,25
2023-01-29T12:21:29.025Z,26
2023-01-29T12:22:28.635Z,26
2023-01-29T12:23:28.432Z,27
2023-01-29T12:24:28.319Z,26
2023-01-29T12:25:28.594Z,28
2023-01-29T12:26:28.587Z,27
2023-01-29T12:27:28.944Z,28
2023-01-29T12:28:29.047Z,24
2023-01-29T12:29:28.852Z,28
2023-01-29T12:30:28.411Z,29
2023-01-29T12:31:28.422Z,29
2023-01-29T12:32:28.571Z,32
2023-01-29T12:33:29.281Z,29
2023-01-29T12:34:28.355Z,30
2023-01-29T12:35:28.891Z,30
2023-01-29T12:36:28.943Z,28
2023-01-29T12:37:28.908Z,28
2023-01-29T12:38:29.064Z,29
2023-01-29T12:39:28.521Z,26
2023-01-29T12:40:28.782Z,28
2023-01-29T12:41:28.870Z,28
2023-01-29T12:42:29.048Z,28
2023-01-29T12:43:28.855Z,30
2023-01-29T12:44:28.324Z,29
2023-01-29T12:45:28.743Z,28
2023-01-29T12:46:28.328Z,29
2023-01-29T12:47:28.355Z,27
2023-01-29T12:48:29.085Z,27
2023-01-29T12:49:28.985Z,28
2023-01-29T12:50:29.165Z,29
2023-01-29T12:51:28.390Z,27
2023-01-29T12:52:28.336Z,29
2023-01-29T12:53:28.906Z,27
2023-01-29T12:54:28.618Z,26
2023-01-29T12:55:28.601Z,27
2023-01-29T12:56:28.353Z,27
2023-01-29T12:57:29.105Z,26
2023-01-29T12:58:28.638Z,25
2023-01-29T12:59:29.399Z,26
2023-01-29T13:00:28.362Z,28
2023-01-29T13:01:29.066Z,29
2023-01-29T13:02:28.783Z,28
2023-01-29T13:03:28.685Z,27
2023-01-29T13:04:29.072Z,26
2023-01-29T13:05:28.967Z,31
2023-01-29T13:06:29.024Z,29
2023-01-29T13:07:28.648Z,26
2023-01-29T13:08:28.918Z,31
2023-01-29T13:09:28.368Z,32
2023-01-29T13:10:27.225Z,27
2023-01-29T13:11:28.406Z,28
2023-01-29T13:12:28.411Z,24
2023-01-29T13:13:28.724Z,26
2023-01-29T13:14:28.423Z,29
2023-01-29T13:15:28.324Z,29
2023-01-29T13:16:28.449Z,28
2023-01-29T13:17:28.441Z,27
2023-01-29T13:18:29.056Z,25
2023-01-29T13:19:28.511Z,27
2023-01-29T13:20:30.262Z,24
2023-01-29T13:21:28.392Z,27
2023-01-29T13:22:29.020Z,28
2023-01-29T13:23:28.379Z,26
2023-01-29T13:24:28.415Z,27
2023-01-29T13:25:28.422Z,28
2023-01-29T13:26:28.755Z,30
2023-01-29T13:27:29.021Z,27
2023-01-29T13:28:28.317Z,26
2023-01-29T13:29:28.941Z,26
2023-01-29T13:30:28.531Z,28
2023-01-29T13:31:28.522Z,28
2023-01-29T13:32:28.967Z,28
2023-01-29T13:33:28.331Z,28
2023-01-29T13:34:29.240Z,28
2023-01-29T13:35:28.745Z,29
2023-01-29T13:36:28.897Z,26
2023-01-29T13:37:28.578Z,27
2023-01-29T13:38:28.485Z,25
2023-01-29T13:39:28.920Z,27
2023-01-29T13:40:28.406Z,28
2023-01-29T13:41:28.909Z,31
2023-01-29T13:42:28.395Z,27
2023-01-29T13:43:28.641Z,29
2023-01-29T13:44:28.656Z,28
2023-01-29T13:45:28.367Z,30
2023-01-29T13:46:28.871Z,29
2023-01-29T13:47:28.332Z,30
2023-01-29T13:48:28.491Z,31
2023-01-29T13:49:28.365Z,31
2023-01-29T13:50:28.351Z,26
2023-01-29T13:51:28.353Z,26
2023-01-29T13:52:28.415Z,23
2023-01-29T13:53:28.789Z,24
2023-01-29T13:54:28.707Z,27
2023-01-29T13:55:28.345Z,23
2023-01-29T13:56:28.569Z,24
2023-01-29T13:57:28.793Z,23
2023-01-29T13:58:28.331Z,23
2023-01-29T13:59:29.099Z,28
2023-01-29T14:00:27.191Z,32
2023-01-29T14:01:28.361Z,26
2023-01-29T14:02:28.523Z,26
2023-01-29T14:03:29.957Z,28
2023-01-29T14:04:28.813Z,22
2023-01-29T14:05:29.017Z,24
2023-01-29T14:06:28.352Z,26
2023-01-29T14:07:28.364Z,23
2023-01-29T14:08:29.199Z,23
2023-01-29T14:09:28.982Z,25
2023-01-29T14:10:29.295Z,22
2023-01-29T14:11:28.309Z,17
2023-01-29T14:12:28.322Z,20
2023-01-29T14:13:28.411Z,21
2023-01-29T14:14:28.423Z,20
2023-01-29T14:15:28.414Z,22
2023-01-29T14:16:28.457Z,18